Time;durP1;ratioP1;P1;durP2;ratioP2;P2;SDS_P1;SDS_P2;PMS_P1;PMS_P2;Temp;Humidity;BMP_temperature;BMP_pressure;BME280_temperature;BME280_humidity;BME280_pressure;Samples;Min_cycle;Max_cycle;Signal;HPM_P1;HPM_P2
2021/12/04 00:00:36;;;;;;;7.50;4.10;;;1.80;68.00;;;;;;5071734;28;20032;-64
2021/12/04 00:03:03;;;;;;;5.22;3.65;;;1.80;67.70;;;;;;5071308;28;20031;-65
2021/12/04 00:05:29;;;;;;;5.70;3.97;;;1.80;67.50;;;;;;5071773;28;20374;-65
2021/12/04 00:07:55;;;;;;;8.07;4.38;;;1.80;67.50;;;;;;5071232;28;20035;-65
2021/12/04 00:10:26;;;;;;;8.05;4.65;;;1.80;67.40;;;;;;5071964;28;20132;-65
2021/12/04 00:12:52;;;;;;;7.30;4.28;;;1.80;67.10;;;;;;5071167;28;20035;-64
2021/12/04 00:15:18;;;;;;;6.07;4.30;;;1.90;67.00;;;;;;5071527;28;20044;-64
2021/12/04 00:17:44;;;;;;;8.38;4.13;;;1.90;66.80;;;;;;5071613;28;20048;-64
2021/12/04 00:20:11;;;;;;;6.03;3.90;;;1.80;65.80;;;;;;5071293;28;20058;-65
2021/12/04 00:22:37;;;;;;;7.50;3.80;;;1.90;65.50;;;;;;5071747;28;20033;-64
2021/12/04 00:25:07;;;;;;;7.93;3.88;;;1.90;65.30;;;;;;5071031;28;20017;-64
2021/12/04 00:27:33;;;;;;;5.53;3.80;;;1.90;65.00;;;;;;5071499;28;20385;-65
2021/12/04 00:30:17;;;;;;;6.07;4.05;;;1.90;64.60;;;;;;5070664;28;20020;-64
2021/12/04 00:32:52;;;;;;;4.13;3.05;;;1.90;64.30;;;;;;5071495;28;20025;-64
2021/12/04 00:35:31;;;;;;;6.70;4.10;;;1.80;64.20;;;;;;5071579;28;20037;-63
2021/12/04 00:43:25;;;;;;;5.28;3.40;;;1.80;63.60;;;;;;5070824;28;20492;-64
2021/12/04 00:51:20;;;;;;;5.80;3.80;;;1.80;64.00;;;;;;5072815;28;20039;-63
2021/12/04 00:53:47;;;;;;;5.72;3.97;;;1.70;64.20;;;;;;5074958;28;20151;-64
2021/12/04 00:56:13;;;;;;;6.25;4.43;;;1.70;64.40;;;;;;5074318;28;20075;-64
2021/12/04 00:58:39;;;;;;;7.35;3.85;;;1.70;65.00;;;;;;5074934;28;20025;-63
2021/12/04 01:01:05;;;;;;;6.78;4.35;;;1.70;65.20;;;;;;5073116;28;20081;-66
2021/12/04 01:03:34;;;;;;;6.07;3.85;;;1.60;65.30;;;;;;5074789;28;20388;-65
2021/12/04 01:06:00;;;;;;;8.38;4.22;;;1.60;65.60;;;;;;5074211;28;20021;-65
2021/12/04 01:08:26;;;;;;;5.32;3.63;;;1.60;65.50;;;;;;5074759;28;20029;-64
2021/12/04 01:10:52;;;;;;;6.38;3.88;;;1.60;65.90;;;;;;5074325;28;20359;-64
2021/12/04 01:13:18;;;;;;;7.82;3.95;;;1.60;65.60;;;;;;5074141;28;20029;-65
2021/12/04 01:15:44;;;;;;;5.75;3.75;;;1.50;65.80;;;;;;5074612;28;20024;-64
2021/12/04 01:18:11;;;;;;;5.78;3.72;;;1.60;66.00;;;;;;5072681;28;20423;-65
2021/12/04 01:20:38;;;;;;;6.28;3.63;;;1.50;66.10;;;;;;5074509;28;20124;-65
2021/12/04 01:23:04;;;;;;;5.78;3.38;;;1.60;66.00;;;;;;5076474;28;20051;-66
2021/12/04 01:25:30;;;;;;;8.18;3.97;;;1.50;65.90;;;;;;5074753;28;20111;-64
2021/12/04 01:27:56;;;;;;;5.88;3.85;;;1.60;66.10;;;;;;5074410;28;20035;-67
2021/12/04 01:30:41;;;;;;;7.88;4.03;;;1.60;65.90;;;;;;5074941;28;20043;-65
2021/12/04 01:33:07;;;;;;;7.35;3.90;;;1.60;65.80;;;;;;5073466;28;20095;-65
2021/12/04 01:35:32;;;;;;;8.45;4.00;;;1.50;66.20;;;;;;5074267;28;20120;-65
2021/12/04 01:37:58;;;;;;;6.13;3.83;;;1.50;66.10;;;;;;5073312;28;20488;-63
2021/12/04 01:40:26;;;;;;;5.93;3.80;;;1.50;66.00;;;;;;5073885;28;20024;-63
2021/12/04 01:42:51;;;;;;;5.95;3.40;;;1.50;66.00;;;;;;5074186;28;20064;-65
2021/12/04 01:45:18;;;;;;;4.80;3.72;;;1.50;65.00;;;;;;5073658;28;20084;-65
2021/12/04 01:47:44;;;;;;;6.40;3.22;;;1.50;64.70;;;;;;5073939;28;20056;-63
2021/12/04 01:50:10;;;;;;;4.80;3.70;;;1.50;64.50;;;;;;5073312;28;20052;-65
2021/12/04 01:52:35;;;;;;;5.70;3.20;;;1.50;64.30;;;;;;5074229;28;20464;-65
2021/12/04 01:55:01;;;;;;;5.38;2.80;;;1.40;64.40;;;;;;5073371;28;20025;-66
2021/12/04 01:57:27;;;;;;;4.47;3.10;;;1.40;64.10;;;;;;5073770;28;20080;-65
2021/12/04 01:59:53;;;;;;;6.47;3.17;;;1.40;63.90;;;;;;5074116;28;20055;-63
2021/12/04 02:02:19;;;;;;;6.93;3.15;;;1.40;64.00;;;;;;5072754;28;20040;-63
2021/12/04 02:04:46;;;;;;;4.68;3.17;;;1.40;63.80;;;;;;5074710;28;20095;-63
2021/12/04 02:07:13;;;;;;;6.47;3.88;;;1.30;64.20;;;;;;5073092;28;20029;-64
2021/12/04 02:09:39;;;;;;;6.30;3.25;;;1.30;64.50;;;;;;5073680;28;20036;-64
2021/12/04 02:12:06;;;;;;;5.65;3.25;;;1.30;64.70;;;;;;5073067;28;20025;-66
2021/12/04 02:17:19;;;;;;;3.92;2.72;;;1.20;65.10;;;;;;5072707;28;20408;-65
2021/12/04 02:19:47;;;;;;;3.95;2.80;;;1.20;65.40;;;;;;5073891;28;20024;-65
2021/12/04 02:22:12;;;;;;;3.63;2.63;;;1.20;65.20;;;;;;5072969;28;20449;-65
2021/12/04 02:24:38;;;;;;;4.55;2.97;;;1.20;65.30;;;;;;5073101;28;20043;-65
2021/12/04 02:27:04;;;;;;;6.45;3.05;;;1.20;65.50;;;;;;5078467;28;20029;-65
2021/12/04 02:29:30;;;;;;;4.35;3.00;;;1.10;65.40;;;;;;5082234;28;20095;-65
2021/12/04 02:31:58;;;;;;;4.78;3.13;;;1.10;65.40;;;;;;5092586;28;20431;-64
2021/12/04 02:34:26;;;;;;;4.93;2.92;;;1.10;65.40;;;;;;5091973;28;20035;-63
2021/12/04 02:36:52;;;;;;;5.50;2.80;;;1.10;65.40;;;;;;5093681;28;20120;-63
2021/12/04 02:39:31;;;;;;;5.25;3.08;;;1.10;65.30;;;;;;5092801;28;20102;-63
2021/12/04 02:41:58;;;;;;;4.78;3.17;;;1.00;65.20;;;;;;5075911;28;20028;-63
2021/12/04 02:44:39;;;;;;;4.95;2.90;;;1.10;65.60;;;;;;5081639;28;20028;-65
2021/12/04 02:47:06;;;;;;;5.38;2.80;;;1.00;65.40;;;;;;5081814;28;20076;-65
2021/12/04 02:49:32;;;;;;;5.28;3.28;;;1.00;65.10;;;;;;5077108;28;20032;-65
2021/12/04 02:52:03;;;;;;;6.00;3.05;;;1.00;64.90;;;;;;5072837;28;20029;-65
2021/12/04 02:54:30;;;;;;;4.25;2.97;;;1.00;65.00;;;;;;5072928;28;20024;-64
2021/12/04 02:56:56;;;;;;;5.40;3.13;;;1.00;65.30;;;;;;5072539;28;20037;-63
2021/12/04 02:59:21;;;;;;;4.60;3.03;;;1.00;65.40;;;;;;5071936;28;20407;-64
2021/12/04 03:01:47;;;;;;;4.50;3.05;;;1.00;65.60;;;;;;5076599;28;20129;-65
2021/12/04 03:04:13;;;;;;;6.45;3.20;;;1.00;65.40;;;;;;5081185;28;20016;-65
2021/12/04 03:06:57;;;;;;;5.80;3.42;;;1.00;65.50;;;;;;5080607;28;20100;-65
2021/12/04 03:09:23;;;;;;;4.95;3.25;;;1.00;65.70;;;;;;5074707;28;20516;-65
2021/12/04 03:11:49;;;;;;;4.07;3.10;;;1.00;66.00;;;;;;5072626;28;20024;-65
2021/12/04 03:14:17;;;;;;;4.95;3.00;;;0.90;65.60;;;;;;5071131;28;20029;-65
2021/12/04 03:16:43;;;;;;;7.43;3.35;;;1.00;66.30;;;;;;5078726;28;20036;-65
2021/12/04 03:19:09;;;;;;;6.68;3.15;;;1.00;66.10;;;;;;5080887;28;20452;-65
2021/12/04 03:21:37;;;;;;;5.15;3.38;;;1.00;66.30;;;;;;5080110;28;20487;-65
2021/12/04 03:24:12;;;;;;;5.32;3.40;;;1.00;66.40;;;;;;5081136;28;20373;-65
2021/12/04 03:26:38;;;;;;;7.95;3.40;;;1.00;66.40;;;;;;5080767;28;20456;-66
2021/12/04 03:29:08;;;;;;;6.97;3.70;;;1.00;66.90;;;;;;5080023;28;20028;-65
2021/12/04 03:31:47;;;;;;;5.25;3.47;;;1.00;67.00;;;;;;5083189;28;20024;-65
2021/12/04 03:42:26;;;;;;;4.75;3.20;;;1.00;67.80;;;;;;5074201;28;20656;-65
2021/12/04 03:44:53;;;;;;;6.47;3.53;;;0.90;68.20;;;;;;5071936;28;20119;-64
2021/12/04 03:47:20;;;;;;;6.35;3.40;;;0.90;68.90;;;;;;5071521;28;20038;-65
2021/12/04 03:49:47;;;;;;;6.45;3.92;;;0.90;70.10;;;;;;5071948;28;20028;-65
2021/12/04 03:52:13;;;;;;;4.68;3.30;;;0.90;70.60;;;;;;5071351;28;20052;-65
2021/12/04 03:54:39;;;;;;;6.03;3.83;;;0.90;71.20;;;;;;5071830;28;20035;-65
2021/12/04 03:57:05;;;;;;;7.35;3.75;;;0.80;71.60;;;;;;5071516;28;20393;-65
2021/12/04 03:59:33;;;;;;;5.38;3.70;;;0.80;72.10;;;;;;5071278;28;20127;-65
2021/12/04 04:01:59;;;;;;;4.22;3.40;;;0.80;72.50;;;;;;5085336;28;20384;-65
2021/12/04 04:04:25;;;;;;;5.93;3.53;;;0.80;73.00;;;;;;5091357;28;20024;-64
2021/12/04 04:06:51;;;;;;;7.28;3.58;;;0.80;73.60;;;;;;5092246;28;20376;-64
2021/12/04 04:09:17;;;;;;;5.60;4.03;;;0.80;74.20;;;;;;5090082;28;20468;-65
2021/12/04 04:11:42;;;;;;;8.27;3.88;;;0.80;74.80;;;;;;5092069;28;20349;-65
2021/12/04 04:14:08;;;;;;;6.78;4.25;;;0.70;75.00;;;;;;5091598;28;20036;-68
2021/12/04 04:16:37;;;;;;;7.82;4.53;;;0.70;75.40;;;;;;5092098;28;20032;-65
2021/12/04 04:19:03;;;;;;;6.28;3.88;;;0.70;75.90;;;;;;5091928;28;20086;-64
2021/12/04 04:21:29;;;;;;;5.75;4.15;;;0.70;76.10;;;;;;5091211;28;20028;-65
2021/12/04 04:23:55;;;;;;;7.88;4.65;;;0.70;76.40;;;;;;5091986;28;20089;-64
2021/12/04 04:26:20;;;;;;;6.50;4.68;;;0.70;77.10;;;;;;5094519;28;20384;-64
2021/12/04 04:28:46;;;;;;;9.30;4.78;;;0.70;78.20;;;;;;5095437;28;20024;-64
2021/12/04 04:31:13;;;;;;;6.28;4.70;;;0.70;78.30;;;;;;5094918;28;20065;-64
2021/12/04 04:33:42;;;;;;;6.82;4.30;;;0.70;78.40;;;;;;5095739;28;20059;-64
2021/12/04 04:36:35;;;;;;;5.75;4.53;;;0.60;79.10;;;;;;5095572;28;20036;-65
2021/12/04 05:00:56;;;;;;;7.82;4.57;;;0.70;83.00;;;;;;5095268;28;20061;-64
2021/12/04 05:11:40;;;;;;;8.48;4.93;;;0.80;82.60;;;;;;5094404;28;20077;-64
2021/12/04 05:14:06;;;;;;;8.38;5.07;;;0.80;82.30;;;;;;5095148;28;20036;-64
2021/12/04 05:16:48;;;;;;;8.57;4.70;;;0.80;81.40;;;;;;5094194;28;20032;-64
2021/12/04 05:19:28;;;;;;;7.63;4.65;;;0.80;80.60;;;;;;5094009;28;20461;-64
2021/12/04 05:21:54;;;;;;;7.00;4.30;;;0.80;80.20;;;;;;5094743;28;20020;-64
2021/12/04 05:24:21;;;;;;;8.82;4.43;;;0.80;79.90;;;;;;5090970;28;20350;-64
2021/12/04 05:26:47;;;;;;;8.05;4.60;;;0.80;79.10;;;;;;5093407;28;20423;-64
2021/12/04 05:29:13;;;;;;;8.90;5.55;;;0.80;78.80;;;;;;5094668;28;20046;-64
2021/12/04 05:31:39;;;;;;;6.32;4.13;;;0.80;78.80;;;;;;5094787;28;20474;-64
2021/12/04 05:34:05;;;;;;;4.60;3.78;;;0.80;79.00;;;;;;5094306;28;20082;-63
2021/12/04 05:36:30;;;;;;;7.95;4.85;;;0.80;79.30;;;;;;5092921;28;20029;-64
2021/12/04 05:38:56;;;;;;;9.20;5.00;;;0.90;79.50;;;;;;5094555;28;20039;-64
2021/12/04 05:41:22;;;;;;;7.95;5.13;;;0.90;79.90;;;;;;5093799;28;20025;-64
2021/12/04 05:43:48;;;;;;;7.32;5.25;;;0.90;80.10;;;;;;5094501;28;20030;-64
2021/12/04 05:46:16;;;;;;;9.30;5.20;;;0.90;80.60;;;;;;5087767;28;20052;-64
2021/12/04 05:56:17;;;;;;;6.72;4.60;;;1.00;81.60;;;;;;5084824;28;20031;-66
2021/12/04 05:58:43;;;;;;;7.13;4.57;;;1.00;81.20;;;;;;5083703;28;20047;-64
2021/12/04 06:01:09;;;;;;;6.20;4.32;;;1.00;80.60;;;;;;5081797;28;20036;-63
2021/12/04 06:03:35;;;;;;;6.40;4.43;;;1.00;80.40;;;;;;5081140;28;20028;-63
2021/12/04 06:06:02;;;;;;;6.90;4.45;;;1.00;80.10;;;;;;5088576;28;20032;-65
2021/12/04 06:08:28;;;;;;;5.40;4.20;;;1.00;80.40;;;;;;5093416;28;20032;-64
2021/12/04 06:10:54;;;;;;;7.95;4.55;;;1.10;79.90;;;;;;5094258;28;20028;-64
2021/12/04 06:13:20;;;;;;;6.68;4.90;;;1.10;79.80;;;;;;5093165;28;20034;-64
2021/12/04 06:15:45;;;;;;;6.35;4.25;;;1.10;79.90;;;;;;5093631;28;20035;-64
2021/12/04 06:18:13;;;;;;;7.97;4.55;;;1.10;80.50;;;;;;5093382;28;20031;-64
2021/12/04 06:23:23;;;;;;;7.78;4.50;;;1.20;80.10;;;;;;5092778;28;20047;-64
2021/12/04 06:25:49;;;;;;;6.93;4.82;;;1.20;80.30;;;;;;5090249;28;20028;-65
2021/12/04 06:28:16;;;;;;;6.72;4.13;;;1.10;80.00;;;;;;5084032;28;20103;-64
2021/12/04 06:30:42;;;;;;;6.18;4.18;;;1.20;80.60;;;;;;5088136;28;20085;-65
2021/12/04 06:33:11;;;;;;;7.90;4.47;;;1.20;80.60;;;;;;5080784;28;20074;-64
2021/12/04 06:35:41;;;;;;;8.60;4.63;;;1.20;80.50;;;;;;5086739;28;20033;-64
2021/12/04 06:38:11;;;;;;;6.65;4.72;;;1.20;80.80;;;;;;5093516;28;20448;-64
2021/12/04 06:40:39;;;;;;;6.30;4.45;;;1.20;81.10;;;;;;5092152;28;20028;-64
2021/12/04 06:43:05;;;;;;;6.22;4.25;;;1.20;80.90;;;;;;5087331;28;20028;-65
2021/12/04 06:45:34;;;;;;;5.50;4.40;;;1.20;81.30;;;;;;5071937;28;20048;-64
2021/12/04 06:48:07;;;;;;;8.25;4.70;;;1.20;81.50;;;;;;5072228;28;20032;-63
2021/12/04 06:50:41;;;;;;;8.60;5.40;;;1.20;81.40;;;;;;5072048;28;20021;-64
2021/12/04 06:55:45;;;;;;;11.05;5.10;;;1.30;82.00;;;;;;5072065;28;20067;-63
2021/12/04 06:58:10;;;;;;;6.60;5.10;;;1.30;82.90;;;;;;5072875;28;20029;-65
2021/12/04 07:00:36;;;;;;;6.18;4.95;;;1.30;83.00;;;;;;5081238;28;20077;-65
2021/12/04 07:03:02;;;;;;;8.00;5.25;;;1.30;83.50;;;;;;5092305;28;20384;-65
2021/12/04 07:05:28;;;;;;;7.72;5.28;;;1.30;84.50;;;;;;5076501;28;20090;-64
2021/12/04 07:07:54;;;;;;;7.72;5.55;;;1.40;85.00;;;;;;5072891;28;20484;-64
2021/12/04 07:10:19;;;;;;;8.57;5.57;;;1.40;85.30;;;;;;5072324;28;20032;-64
2021/12/04 07:12:45;;;;;;;10.43;5.90;;;1.40;85.70;;;;;;5070340;28;20519;-64
2021/12/04 07:15:12;;;;;;;8.38;5.68;;;1.50;86.10;;;;;;5071764;28;20020;-64
2021/12/04 07:17:38;;;;;;;11.90;6.93;;;1.50;86.90;;;;;;5071587;28;20028;-64
2021/12/04 07:20:06;;;;;;;12.10;6.60;;;1.50;88.30;;;;;;5072146;28;20044;-64
2021/12/04 07:22:32;;;;;;;10.15;6.93;;;1.50;88.40;;;;;;5073944;28;20071;-65
2021/12/04 07:24:58;;;;;;;12.23;7.75;;;1.60;89.00;;;;;;5072316;28;20029;-64
2021/12/04 07:27:25;;;;;;;10.23;7.35;;;1.60;90.00;;;;;;5071528;28;20040;-65
2021/12/04 07:29:51;;;;;;;10.48;7.28;;;1.60;90.10;;;;;;5072105;28;20020;-64
2021/12/04 07:32:16;;;;;;;10.40;7.40;;;1.60;90.30;;;;;;5072246;28;20113;-64
2021/12/04 07:34:42;;;;;;;9.18;6.78;;;1.70;90.40;;;;;;5080426;28;20488;-64
2021/12/04 07:37:08;;;;;;;10.15;7.28;;;1.70;90.40;;;;;;5092188;28;20119;-64
2021/12/04 07:39:33;;;;;;;11.07;6.95;;;1.70;90.50;;;;;;5091575;28;20384;-64
2021/12/04 07:41:59;;;;;;;10.10;6.70;;;1.80;90.50;;;;;;5091131;28;20024;-64
2021/12/04 07:44:25;;;;;;;10.80;7.72;;;1.80;90.60;;;;;;5090167;28;20028;-64
2021/12/04 07:46:52;;;;;;;8.90;6.72;;;1.80;90.70;;;;;;5091598;28;20052;-64
2021/12/04 07:49:17;;;;;;;11.65;7.95;;;1.80;90.70;;;;;;5091789;28;20384;-64
2021/12/04 07:51:44;;;;;;;10.05;7.13;;;1.90;90.70;;;;;;5091228;28;20043;-63
2021/12/04 07:54:10;;;;;;;9.13;6.72;;;1.80;90.60;;;;;;5092215;28;20346;-63
2021/12/04 07:56:36;;;;;;;8.98;6.72;;;1.90;90.80;;;;;;5091568;28;20085;-64
2021/12/04 07:59:02;;;;;;;8.45;6.45;;;1.90;90.60;;;;;;5086625;28;20051;-64
2021/12/04 08:01:28;;;;;;;11.30;6.95;;;2.00;90.60;;;;;;5090869;28;20028;-64
2021/12/04 08:03:54;;;;;;;10.25;6.82;;;2.00;90.60;;;;;;5079431;28;20047;-64
2021/12/04 08:06:19;;;;;;;10.18;7.43;;;2.00;90.60;;;;;;5078012;28;20028;-65
2021/12/04 08:08:45;;;;;;;9.85;7.30;;;2.00;90.50;;;;;;5086195;28;20214;-64
2021/12/04 08:11:11;;;;;;;10.32;6.43;;;2.10;90.40;;;;;;5090086;28;20025;-64
2021/12/04 08:13:36;;;;;;;9.65;6.97;;;2.10;90.30;;;;;;5077755;28;20028;-64
2021/12/04 08:16:02;;;;;;;10.38;6.88;;;2.10;90.20;;;;;;5078239;28;20039;-64
2021/12/04 08:18:28;;;;;;;8.80;6.15;;;2.20;90.30;;;;;;5077760;28;20405;-65
2021/12/04 08:20:54;;;;;;;10.93;6.88;;;2.20;90.00;;;;;;5081188;28;20134;-64
2021/12/04 08:23:20;;;;;;;8.95;6.55;;;2.20;90.00;;;;;;5088709;28;20023;-64
2021/12/04 08:25:47;;;;;;;9.50;6.60;;;2.20;89.60;;;;;;5089058;28;20024;-65
2021/12/04 08:28:13;;;;;;;9.15;6.68;;;2.30;89.30;;;;;;5087444;28;20043;-64
2021/12/04 08:30:40;;;;;;;10.75;6.38;;;2.30;89.00;;;;;;5078674;28;20020;-64
2021/12/04 08:33:10;;;;;;;9.60;7.07;;;2.30;88.30;;;;;;5077977;28;20094;-64
2021/12/04 08:35:39;;;;;;;9.25;6.60;;;2.30;88.70;;;;;;5077843;28;20056;-65
2021/12/04 08:38:07;;;;;;;8.15;6.43;;;2.40;88.80;;;;;;5078391;28;20028;-64
2021/12/04 08:40:33;;;;;;;12.75;6.90;;;2.40;88.50;;;;;;5082252;28;20436;-64
2021/12/04 08:42:59;;;;;;;9.82;6.72;;;2.30;88.80;;;;;;5086764;28;20085;-65
2021/12/04 08:45:26;;;;;;;8.73;6.47;;;2.40;88.90;;;;;;5097537;28;20415;-65
2021/12/04 08:47:52;;;;;;;10.73;6.82;;;2.40;88.60;;;;;;5086589;28;20025;-64
2021/12/04 08:50:23;;;;;;;10.43;6.72;;;2.40;88.60;;;;;;5086480;28;20054;-64
2021/12/04 08:52:49;;;;;;;9.38;7.20;;;2.50;88.80;;;;;;5091977;28;20339;-64
2021/12/04 08:55:16;;;;;;;8.93;6.75;;;2.50;88.80;;;;;;5098324;28;20457;-64
2021/12/04 08:57:42;;;;;;;8.65;6.65;;;2.50;88.50;;;;;;5097718;28;20452;-65
2021/12/04 09:00:13;;;;;;;8.38;6.25;;;2.50;88.60;;;;;;5098044;28;20218;-64
2021/12/04 09:02:40;;;;;;;9.45;7.47;;;2.50;89.10;;;;;;5097975;28;20034;-63
2021/12/04 09:05:08;;;;;;;15.60;6.97;;;2.50;89.00;;;;;;5098361;28;20035;-65
2021/12/04 09:07:34;;;;;;;9.50;6.57;;;2.60;89.00;;;;;;5097330;28;20586;-63
2021/12/04 09:10:00;;;;;;;8.35;6.57;;;2.60;88.50;;;;;;5098090;28;20107;-63
2021/12/04 09:12:28;;;;;;;7.43;6.40;;;2.60;88.20;;;;;;5094713;28;20094;-63
2021/12/04 09:14:56;;;;;;;13.30;7.00;;;2.60;88.00;;;;;;5091107;28;20035;-63
2021/12/04 09:17:22;;;;;;;10.07;7.38;;;2.60;88.00;;;;;;5092144;28;20046;-64
2021/12/04 09:19:48;;;;;;;10.52;6.45;;;2.70;88.10;;;;;;5094108;28;20024;-63
2021/12/04 09:22:25;;;;;;;10.15;6.80;;;2.70;87.30;;;;;;5094516;28;20103;-63
2021/12/04 09:24:55;;;;;;;9.80;6.75;;;2.70;87.20;;;;;;5093934;28;20032;-63
2021/12/04 10:03:19;;;;;;;9.82;6.68;;;3.40;84.20;;;;;;5086937;28;20026;-64
2021/12/04 10:22:41;;;;;;;9.07;6.90;;;3.50;82.80;;;;;;5034837;28;20029;-64
2021/12/04 10:33:43;;;;;;;10.05;7.10;;;3.60;82.10;;;;;;5051002;28;20512;-64
2021/12/04 10:36:10;;;;;;;8.35;6.50;;;3.60;81.90;;;;;;5050537;28;20040;-64
2021/12/04 10:38:41;;;;;;;9.68;6.97;;;3.60;81.80;;;;;;5049999;28;20036;-64
2021/12/04 10:41:08;;;;;;;8.77;6.55;;;3.70;81.40;;;;;;5050785;28;20037;-63
2021/12/04 10:43:35;;;;;;;9.40;6.22;;;3.70;80.80;;;;;;5050648;28;20068;-64
2021/12/04 10:46:11;;;;;;;12.80;6.95;;;3.70;80.20;;;;;;5050429;28;20255;-63
2021/12/04 10:48:45;;;;;;;9.70;6.57;;;3.70;80.60;;;;;;5049820;28;20226;-64
2021/12/04 10:53:48;;;;;;;11.00;6.70;;;3.70;80.80;;;;;;5078453;28;20032;-64
2021/12/04 11:38:07;;;;;;;10.88;7.65;;;4.00;81.20;;;;;;5091709;28;20043;-63
2021/12/04 11:43:07;;;;;;;8.82;6.80;;;4.10;80.70;;;;;;5092084;28;20035;-64
2021/12/04 11:45:45;;;;;;;9.93;7.22;;;4.10;79.60;;;;;;5092090;28;20138;-64
2021/12/04 11:48:12;;;;;;;10.35;6.80;;;4.20;79.80;;;;;;5092264;28;20028;-64
2021/12/04 11:50:40;;;;;;;11.50;7.18;;;4.20;79.80;;;;;;5091755;28;20024;-63
2021/12/04 11:53:12;;;;;;;13.63;7.45;;;4.20;80.00;;;;;;5092204;28;20024;-63
2021/12/04 11:55:42;;;;;;;10.95;7.65;;;4.20;79.70;;;;;;5084741;28;20127;-64
2021/12/04 11:58:23;;;;;;;12.38;7.53;;;4.20;79.30;;;;;;5072099;28;20077;-63
2021/12/04 12:00:58;;;;;;;11.50;7.78;;;4.30;79.40;;;;;;5071254;28;20024;-64
2021/12/04 12:03:28;;;;;;;9.57;7.10;;;4.30;79.30;;;;;;5071976;28;20056;-63
2021/12/04 12:06:14;;;;;;;9.57;7.43;;;4.30;79.30;;;;;;5070985;28;20029;-63
2021/12/04 12:08:43;;;;;;;13.90;8.13;;;4.30;79.20;;;;;;5071376;28;20030;-64
2021/12/04 12:11:10;;;;;;;11.73;7.85;;;4.30;79.10;;;;;;5070583;28;20025;-63
2021/12/04 12:13:44;;;;;;;10.13;8.00;;;4.40;79.10;;;;;;5071337;28;20063;-65
2021/12/04 12:16:14;;;;;;;9.55;7.40;;;4.40;79.00;;;;;;5071947;28;20384;-63
2021/12/04 12:18:56;;;;;;;10.18;7.28;;;4.40;79.30;;;;;;5071046;28;20040;-63
2021/12/04 12:21:33;;;;;;;10.98;7.72;;;4.50;79.20;;;;;;5071923;28;20107;-63
2021/12/04 12:36:05;;;;;;;8.27;5.68;;;4.60;79.90;;;;;;5091232;28;20040;-63
2021/12/04 12:38:53;;;;;;;5.57;3.53;;;4.60;79.20;;;;;;5086630;28;20028;-64
2021/12/04 12:41:42;;;;;;;5.85;3.55;;;4.60;74.20;;;;;;5082615;28;20024;-63
2021/12/04 12:44:29;;;;;;;6.03;3.38;;;4.70;73.30;;;;;;5077593;28;20087;-63
2021/12/04 12:47:04;;;;;;;4.97;3.05;;;4.70;70.90;;;;;;5073957;28;20052;-63
2021/12/04 12:49:37;;;;;;;6.75;4.00;;;4.70;69.80;;;;;;5095308;28;20483;-64
2021/12/04 12:52:21;;;;;;;5.00;3.30;;;4.70;69.30;;;;;;5095089;28;20517;-63
2021/12/04 12:54:55;;;;;;;6.55;3.78;;;4.70;69.20;;;;;;5094769;28;20052;-63
2021/12/04 12:57:35;;;;;;;4.88;3.45;;;4.80;69.50;;;;;;5095591;28;20107;-63
2021/12/04 13:14:16;;;;;;;7.50;4.47;;;4.80;70.80;;;;;;5074261;28;20024;-63
2021/12/04 13:16:46;;;;;;;5.53;4.15;;;4.70;70.70;;;;;;5073793;28;20438;-63
2021/12/04 13:19:15;;;;;;;8.10;4.85;;;4.70;70.80;;;;;;5074742;28;20499;-63
2021/12/04 13:21:44;;;;;;;6.75;4.63;;;4.70;71.00;;;;;;5078293;28;20020;-63
2021/12/04 13:24:13;;;;;;;8.68;4.90;;;4.70;71.30;;;;;;5085854;28;20448;-62
2021/12/04 13:26:44;;;;;;;7.15;4.78;;;4.70;71.70;;;;;;5081503;28;20435;-62
2021/12/04 13:29:12;;;;;;;6.50;4.70;;;4.70;71.90;;;;;;5082703;28;20111;-62
2021/12/04 13:31:38;;;;;;;7.28;5.60;;;4.60;72.20;;;;;;5086266;28;20024;-62
2021/12/04 13:34:07;;;;;;;9.77;5.82;;;4.60;72.60;;;;;;5082567;28;20037;-62
2021/12/04 13:36:34;;;;;;;10.20;5.57;;;4.60;72.60;;;;;;5084747;28;20112;-62
2021/12/04 13:39:11;;;;;;;8.35;5.97;;;4.60;73.00;;;;;;5082133;28;20522;-63
2021/12/04 13:41:39;;;;;;;9.20;5.45;;;4.60;72.60;;;;;;5084993;28;20039;-62
2021/12/04 13:44:08;;;;;;;9.52;5.78;;;4.60;73.30;;;;;;5082944;28;20063;-63
2021/12/04 13:46:44;;;;;;;8.18;5.95;;;4.60;73.30;;;;;;5083695;28;20480;-63
2021/12/04 13:49:32;;;;;;;8.07;5.55;;;4.60;73.20;;;;;;5084205;28;20063;-63
2021/12/04 13:52:10;;;;;;;10.65;5.63;;;4.60;73.00;;;;;;5083095;28;20357;-62
2021/12/04 13:54:42;;;;;;;11.10;5.90;;;4.60;73.10;;;;;;5081976;28;20130;-63
2021/12/04 13:57:12;;;;;;;8.95;5.90;;;4.60;73.80;;;;;;5077145;28;20032;-63
2021/12/04 13:59:39;;;;;;;9.00;6.00;;;4.50;73.40;;;;;;5083984;28;20560;-63
2021/12/04 14:02:05;;;;;;;9.93;6.38;;;4.50;73.40;;;;;;5078952;28;20280;-63
2021/12/04 14:04:31;;;;;;;8.15;5.82;;;4.40;73.60;;;;;;5083619;28;20465;-63
2021/12/04 14:07:00;;;;;;;8.98;6.68;;;4.40;74.00;;;;;;5078438;28;20415;-63
2021/12/04 14:09:37;;;;;;;10.38;6.25;;;4.40;74.20;;;;;;5088694;28;20086;-63
2021/12/04 14:12:05;;;;;;;12.25;7.00;;;4.40;74.00;;;;;;5074153;28;20029;-63
2021/12/04 14:14:34;;;;;;;10.23;6.32;;;4.40;74.30;;;;;;5089944;28;20036;-63
2021/12/04 14:17:12;;;;;;;8.93;6.50;;;4.40;74.20;;;;;;5076866;28;20120;-63
2021/12/04 14:19:39;;;;;;;9.27;6.38;;;4.40;74.10;;;;;;5083830;28;20025;-63
2021/12/04 14:22:06;;;;;;;10.07;7.20;;;4.30;73.60;;;;;;5085689;28;20077;-63
2021/12/04 14:24:37;;;;;;;14.25;6.32;;;4.30;73.50;;;;;;5091582;28;20020;-64
2021/12/04 14:27:05;;;;;;;11.82;5.82;;;4.30;73.40;;;;;;5092936;28;20911;-64
2021/12/04 14:29:33;;;;;;;11.23;6.30;;;4.20;73.40;;;;;;5093600;28;20085;-64
2021/12/04 14:31:59;;;;;;;13.50;6.30;;;4.20;73.10;;;;;;5092802;28;20023;-64
2021/12/04 14:34:29;;;;;;;10.63;6.85;;;4.20;73.10;;;;;;5093123;28;20070;-64
2021/12/04 14:37:23;;;;;;;9.70;5.93;;;4.20;73.10;;;;;;5092561;28;20036;-64
2021/12/04 14:39:49;;;;;;;10.43;6.20;;;4.10;73.00;;;;;;5092673;28;20111;-65
2021/12/04 14:42:22;;;;;;;12.30;6.43;;;4.20;73.30;;;;;;5093322;28;20024;-64
2021/12/04 14:45:02;;;;;;;10.13;6.55;;;4.20;73.40;;;;;;5092391;28;20059;-64
2021/12/04 14:47:31;;;;;;;9.90;6.18;;;4.10;73.30;;;;;;5091847;28;20390;-64
2021/12/04 14:50:01;;;;;;;20.80;6.90;;;4.10;73.50;;;;;;5092478;28;20330;-64
2021/12/04 14:52:29;;;;;;;14.68;7.30;;;4.10;74.00;;;;;;5093149;28;20059;-64
2021/12/04 14:54:56;;;;;;;26.33;7.10;;;4.00;74.10;;;;;;5092076;28;20028;-64
2021/12/04 14:57:25;;;;;;;12.25;6.60;;;4.00;74.50;;;;;;5092813;28;20043;-63
2021/12/04 15:00:10;;;;;;;17.13;7.65;;;4.00;74.60;;;;;;5092346;28;20078;-64
2021/12/04 15:02:35;;;;;;;10.95;6.50;;;4.00;74.40;;;;;;5076042;28;20029;-63
2021/12/04 15:05:03;;;;;;;8.50;6.22;;;3.90;74.60;;;;;;5071771;28;20043;-62
2021/12/04 15:07:33;;;;;;;10.50;6.40;;;4.00;74.90;;;;;;5073425;28;20039;-63
2021/12/04 15:10:02;;;;;;;10.27;6.60;;;3.90;74.80;;;;;;5071941;28;20455;-63
2021/12/04 15:12:31;;;;;;;12.82;6.40;;;3.90;75.00;;;;;;5072883;28;20052;-63
2021/12/04 15:15:07;;;;;;;13.05;6.65;;;3.90;75.20;;;;;;5071650;28;20419;-63
2021/12/04 15:17:34;;;;;;;11.13;6.65;;;3.90;75.50;;;;;;5072436;28;20032;-63
2021/12/04 15:20:16;;;;;;;8.48;6.25;;;3.90;75.70;;;;;;5071808;28;20028;-63
2021/12/04 15:22:46;;;;;;;9.40;6.78;;;3.90;76.10;;;;;;5072437;28;20028;-62
2021/12/04 15:25:19;;;;;;;9.82;6.55;;;3.90;76.30;;;;;;5092025;28;20077;-63
2021/12/04 15:27:44;;;;;;;9.60;6.15;;;3.90;76.30;;;;;;5092796;28;20024;-63
2021/12/04 15:30:15;;;;;;;12.20;6.65;;;3.90;76.30;;;;;;5092162;28;20369;-62
2021/12/04 15:32:42;;;;;;;12.77;7.00;;;3.90;76.60;;;;;;5092560;28;20468;-62
2021/12/04 15:38:06;;;;;;;9.85;6.93;;;3.80;76.00;;;;;;5079238;28;20040;-63
2021/12/04 15:40:55;;;;;;;12.70;6.70;;;3.80;76.10;;;;;;5085291;28;20543;-64
2021/12/04 15:52:44;;;;;;;8.18;6.28;;;3.70;77.30;;;;;;5037652;28;20038;-63
2021/12/04 15:54:22;;;;;;;9.52;6.63;;;3.80;77.10;;;;;;5085402;28;20177;-63
2021/12/04 15:56:53;;;;;;;11.20;6.80;;;3.80;77.20;;;;;;5085357;28;20040;-63
2021/12/04 15:59:20;;;;;;;13.85;6.63;;;3.80;77.00;;;;;;5074530;28;20481;-63
2021/12/04 16:01:48;;;;;;;10.63;6.25;;;3.80;77.30;;;;;;5071237;28;20020;-63
2021/12/04 16:04:27;;;;;;;11.43;6.82;;;3.80;77.10;;;;;;5072972;28;20020;-63
2021/12/04 16:06:54;;;;;;;11.82;6.22;;;3.80;77.00;;;;;;5072829;28;20074;-64
2021/12/04 16:09:28;;;;;;;10.63;6.68;;;3.80;76.80;;;;;;5076673;28;20401;-63
2021/12/04 16:12:12;;;;;;;10.35;6.80;;;3.70;76.70;;;;;;5087654;28;20031;-63
2021/12/04 16:14:44;;;;;;;13.27;7.32;;;3.70;77.00;;;;;;5070851;28;20077;-63
2021/12/04 16:17:11;;;;;;;11.48;6.93;;;3.70;76.70;;;;;;5082152;28;20028;-63
2021/12/04 16:19:38;;;;;;;10.50;7.30;;;3.70;76.50;;;;;;5076154;28;20153;-63
2021/12/04 16:22:09;;;;;;;9.95;6.95;;;3.70;76.30;;;;;;5090649;28;20036;-63
2021/12/04 16:24:38;;;;;;;10.95;6.65;;;3.60;76.50;;;;;;5090829;28;20104;-64
2021/12/04 16:27:13;;;;;;;13.60;8.18;;;3.60;76.50;;;;;;5085523;28;20035;-65
2021/12/04 16:29:48;;;;;;;10.55;6.60;;;3.60;76.60;;;;;;5089818;28;20020;-62
2021/12/04 16:37:45;;;;;;;10.98;7.38;;;3.60;76.20;;;;;;5088211;28;20402;-63
2021/12/04 16:40:15;;;;;;;12.23;7.38;;;3.50;76.00;;;;;;5078546;28;20031;-63